sensor_id;sensor_type;location;lat;lon;timestamp;P1;durP1;ratioP1;P2;durP2;ratioP2
351;SDS011;164;50.784;6.496;2022-12-26T00:01:40;3.25;;;2.80;;
351;SDS011;164;50.784;6.496;2022-12-26T00:04:09;3.80;;;1.98;;
351;SDS011;164;50.784;6.496;2022-12-26T00:06:37;4.28;;;2.20;;
351;SDS011;164;50.784;6.496;2022-12-26T00:09:05;2.40;;;2.22;;
351;SDS011;164;50.784;6.496;2022-12-26T00:11:32;2.47;;;2.35;;
351;SDS011;164;50.784;6.496;2022-12-26T00:14:01;3.53;;;1.80;;
351;SDS011;164;50.784;6.496;2022-12-26T00:16:28;4.57;;;2.20;;
351;SDS011;164;50.784;6.496;2022-12-26T00:18:55;2.42;;;2.25;;
351;SDS011;164;50.784;6.496;2022-12-26T00:21:23;4.68;;;2.42;;
351;SDS011;164;50.784;6.496;2022-12-26T00:23:53;3.85;;;1.75;;
351;SDS011;164;50.784;6.496;2022-12-26T00:26:21;2.60;;;1.83;;
351;SDS011;164;50.784;6.496;2022-12-26T00:28:48;3.28;;;2.10;;
351;SDS011;164;50.784;6.496;2022-12-26T00:31:16;5.07;;;2.33;;
351;SDS011;164;50.784;6.496;2022-12-26T00:33:44;5.70;;;3.78;;
351;SDS011;164;50.784;6.496;2022-12-26T00:36:12;2.13;;;1.92;;
351;SDS011;164;50.784;6.496;2022-12-26T00:38:40;1.80;;;1.30;;
351;SDS011;164;50.784;6.496;2022-12-26T00:41:09;2.58;;;1.45;;
351;SDS011;164;50.784;6.496;2022-12-26T00:43:37;3.60;;;2.08;;
351;SDS011;164;50.784;6.496;2022-12-26T00:46:04;2.45;;;1.77;;
351;SDS011;164;50.784;6.496;2022-12-26T00:48:32;2.50;;;1.77;;
351;SDS011;164;50.784;6.496;2022-12-26T00:50:59;2.90;;;2.05;;
351;SDS011;164;50.784;6.496;2022-12-26T00:53:27;3.40;;;1.83;;
351;SDS011;164;50.784;6.496;2022-12-26T00:55:54;1.92;;;1.75;;
351;SDS011;164;50.784;6.496;2022-12-26T00:58:23;2.33;;;1.73;;
351;SDS011;164;50.784;6.496;2022-12-26T01:00:50;3.70;;;1.58;;
351;SDS011;164;50.784;6.496;2022-12-26T01:03:18;2.60;;;1.30;;
351;SDS011;164;50.784;6.496;2022-12-26T01:05:45;2.65;;;2.22;;
351;SDS011;164;50.784;6.496;2022-12-26T01:08:12;2.95;;;1.75;;
351;SDS011;164;50.784;6.496;2022-12-26T01:10:40;1.65;;;1.25;;
351;SDS011;164;50.784;6.496;2022-12-26T01:13:07;2.60;;;1.70;;
351;SDS011;164;50.784;6.496;2022-12-26T01:15:36;3.20;;;2.03;;
351;SDS011;164;50.784;6.496;2022-12-26T01:18:04;2.35;;;1.77;;
351;SDS011;164;50.784;6.496;2022-12-26T01:20:31;4.78;;;1.60;;
351;SDS011;164;50.784;6.496;2022-12-26T01:22:58;3.65;;;1.65;;
351;SDS011;164;50.784;6.496;2022-12-26T01:25:25;2.30;;;1.30;;
351;SDS011;164;50.784;6.496;2022-12-26T01:27:53;3.30;;;1.63;;
351;SDS011;164;50.784;6.496;2022-12-26T01:30:20;3.67;;;1.30;;
351;SDS011;164;50.784;6.496;2022-12-26T01:32:49;1.73;;;1.10;;
351;SDS011;164;50.784;6.496;2022-12-26T01:35:16;1.45;;;0.98;;
351;SDS011;164;50.784;6.496;2022-12-26T01:37:43;2.60;;;1.30;;
351;SDS011;164;50.784;6.496;2022-12-26T01:40:11;4.15;;;1.40;;
351;SDS011;164;50.784;6.496;2022-12-26T01:42:39;2.03;;;1.45;;
351;SDS011;164;50.784;6.496;2022-12-26T01:45:15;3.10;;;1.60;;
351;SDS011;164;50.784;6.496;2022-12-26T01:47:45;2.15;;;1.45;;
351;SDS011;164;50.784;6.496;2022-12-26T01:50:19;2.67;;;1.30;;
351;SDS011;164;50.784;6.496;2022-12-26T01:52:49;2.45;;;1.90;;
351;SDS011;164;50.784;6.496;2022-12-26T01:55:18;2.80;;;2.30;;
351;SDS011;164;50.784;6.496;2022-12-26T01:57:48;1.60;;;1.52;;
351;SDS011;164;50.784;6.496;2022-12-26T02:00:16;3.58;;;1.48;;
351;SDS011;164;50.784;6.496;2022-12-26T02:02:43;1.60;;;1.30;;
351;SDS011;164;50.784;6.496;2022-12-26T02:05:30;2.03;;;1.30;;
351;SDS011;164;50.784;6.496;2022-12-26T02:08:02;3.95;;;1.90;;
351;SDS011;164;50.784;6.496;2022-12-26T02:10:31;2.15;;;1.40;;
351;SDS011;164;50.784;6.496;2022-12-26T02:12:59;1.50;;;1.20;;
351;SDS011;164;50.784;6.496;2022-12-26T02:15:26;1.90;;;1.13;;
351;SDS011;164;50.784;6.496;2022-12-26T02:17:54;1.77;;;1.70;;
351;SDS011;164;50.784;6.496;2022-12-26T02:20:22;1.60;;;1.35;;
351;SDS011;164;50.784;6.496;2022-12-26T02:25:46;2.65;;;1.45;;
351;SDS011;164;50.784;6.496;2022-12-26T02:28:36;2.35;;;1.58;;
351;SDS011;164;50.784;6.496;2022-12-26T02:31:10;2.60;;;1.80;;
351;SDS011;164;50.784;6.496;2022-12-26T02:33:42;2.05;;;1.40;;
351;SDS011;164;50.784;6.496;2022-12-26T02:39:01;2.53;;;1.77;;
351;SDS011;164;50.784;6.496;2022-12-26T02:41:34;2.30;;;1.80;;
351;SDS011;164;50.784;6.496;2022-12-26T02:44:07;1.95;;;1.75;;
351;SDS011;164;50.784;6.496;2022-12-26T02:46:53;2.28;;;2.08;;
351;SDS011;164;50.784;6.496;2022-12-26T02:49:37;3.45;;;1.90;;
351;SDS011;164;50.784;6.496;2022-12-26T02:52:23;2.03;;;1.50;;
351;SDS011;164;50.784;6.496;2022-12-26T02:55:14;2.67;;;1.95;;
351;SDS011;164;50.784;6.496;2022-12-26T02:58:00;2.05;;;1.48;;
351;SDS011;164;50.784;6.496;2022-12-26T03:00:48;4.25;;;1.67;;
351;SDS011;164;50.784;6.496;2022-12-26T03:03:35;1.73;;;1.65;;
351;SDS011;164;50.784;6.496;2022-12-26T03:06:22;4.35;;;1.98;;
351;SDS011;164;50.784;6.496;2022-12-26T03:09:08;1.65;;;1.58;;
351;SDS011;164;50.784;6.496;2022-12-26T03:11:55;1.73;;;1.35;;
351;SDS011;164;50.784;6.496;2022-12-26T03:14:42;2.17;;;1.45;;
351;SDS011;164;50.784;6.496;2022-12-26T03:17:23;2.15;;;1.73;;
351;SDS011;164;50.784;6.496;2022-12-26T03:19:53;1.63;;;1.40;;
351;SDS011;164;50.784;6.496;2022-12-26T03:22:32;2.63;;;1.83;;
351;SDS011;164;50.784;6.496;2022-12-26T03:25:02;2.67;;;1.52;;
351;SDS011;164;50.784;6.496;2022-12-26T03:27:47;2.03;;;1.40;;
351;SDS011;164;50.784;6.496;2022-12-26T03:30:15;2.80;;;1.80;;
351;SDS011;164;50.784;6.496;2022-12-26T03:32:59;2.13;;;1.40;;
351;SDS011;164;50.784;6.496;2022-12-26T03:35:28;1.60;;;1.50;;
351;SDS011;164;50.784;6.496;2022-12-26T03:37:56;1.88;;;1.77;;
351;SDS011;164;50.784;6.496;2022-12-26T03:40:32;2.35;;;1.83;;
351;SDS011;164;50.784;6.496;2022-12-26T03:43:24;2.55;;;2.20;;
351;SDS011;164;50.784;6.496;2022-12-26T03:46:12;1.83;;;1.17;;
351;SDS011;164;50.784;6.496;2022-12-26T03:49:00;1.83;;;1.35;;
351;SDS011;164;50.784;6.496;2022-12-26T03:51:52;1.58;;;1.40;;
351;SDS011;164;50.784;6.496;2022-12-26T03:54:40;2.40;;;1.80;;
351;SDS011;164;50.784;6.496;2022-12-26T03:57:28;1.35;;;1.25;;
351;SDS011;164;50.784;6.496;2022-12-26T04:00:14;2.45;;;1.80;;
351;SDS011;164;50.784;6.496;2022-12-26T04:03:01;2.88;;;1.65;;
351;SDS011;164;50.784;6.496;2022-12-26T04:05:57;2.85;;;2.05;;
351;SDS011;164;50.784;6.496;2022-12-26T04:08:57;1.83;;;1.40;;
351;SDS011;164;50.784;6.496;2022-12-26T04:11:50;4.88;;;1.50;;
351;SDS011;164;50.784;6.496;2022-12-26T04:14:38;1.30;;;1.13;;
351;SDS011;164;50.784;6.496;2022-12-26T04:17:26;1.00;;;0.80;;
351;SDS011;164;50.784;6.496;2022-12-26T04:20:15;1.10;;;0.70;;
351;SDS011;164;50.784;6.496;2022-12-26T04:22:43;5.18;;;0.90;;
351;SDS011;164;50.784;6.496;2022-12-26T04:25:32;1.77;;;1.13;;
351;SDS011;164;50.784;6.496;2022-12-26T04:31:24;1.55;;;1.20;;
351;SDS011;164;50.784;6.496;2022-12-26T04:34:11;1.50;;;1.00;;
351;SDS011;164;50.784;6.496;2022-12-26T04:36:59;3.05;;;0.95;;
351;SDS011;164;50.784;6.496;2022-12-26T04:39:46;2.28;;;1.27;;
351;SDS011;164;50.784;6.496;2022-12-26T04:42:33;1.25;;;1.15;;
351;SDS011;164;50.784;6.496;2022-12-26T04:45:19;2.20;;;1.55;;
351;SDS011;164;50.784;6.496;2022-12-26T04:47:48;5.15;;;1.80;;
351;SDS011;164;50.784;6.496;2022-12-26T04:50:29;1.90;;;1.58;;
351;SDS011;164;50.784;6.496;2022-12-26T04:52:56;1.23;;;0.95;;
351;SDS011;164;50.784;6.496;2022-12-26T04:55:24;1.13;;;1.05;;
351;SDS011;164;50.784;6.496;2022-12-26T04:57:53;2.60;;;1.00;;
351;SDS011;164;50.784;6.496;2022-12-26T05:00:20;1.77;;;1.00;;
351;SDS011;164;50.784;6.496;2022-12-26T05:02:49;1.23;;;1.10;;
351;SDS011;164;50.784;6.496;2022-12-26T05:05:36;1.30;;;1.20;;
351;SDS011;164;50.784;6.496;2022-12-26T05:08:22;1.15;;;1.00;;
351;SDS011;164;50.784;6.496;2022-12-26T05:11:08;2.22;;;1.02;;
351;SDS011;164;50.784;6.496;2022-12-26T05:13:37;0.90;;;0.80;;
351;SDS011;164;50.784;6.496;2022-12-26T05:16:04;2.20;;;1.20;;
351;SDS011;164;50.784;6.496;2022-12-26T05:18:49;1.83;;;1.50;;
351;SDS011;164;50.784;6.496;2022-12-26T05:21:35;1.55;;;1.38;;
351;SDS011;164;50.784;6.496;2022-12-26T05:24:20;3.30;;;1.40;;
351;SDS011;164;50.784;6.496;2022-12-26T05:27:07;3.55;;;2.00;;
351;SDS011;164;50.784;6.496;2022-12-26T05:29:55;3.50;;;1.58;;
351;SDS011;164;50.784;6.496;2022-12-26T05:32:22;1.42;;;1.33;;
351;SDS011;164;50.784;6.496;2022-12-26T05:35:07;1.60;;;1.58;;
351;SDS011;164;50.784;6.496;2022-12-26T05:37:34;2.13;;;1.85;;
351;SDS011;164;50.784;6.496;2022-12-26T05:40:02;1.60;;;1.60;;
351;SDS011;164;50.784;6.496;2022-12-26T05:42:29;1.40;;;1.30;;
351;SDS011;164;50.784;6.496;2022-12-26T05:44:58;2.72;;;1.98;;
351;SDS011;164;50.784;6.496;2022-12-26T05:47:26;1.63;;;1.63;;
351;SDS011;164;50.784;6.496;2022-12-26T05:49:53;1.98;;;1.73;;
351;SDS011;164;50.784;6.496;2022-12-26T05:52:20;1.38;;;1.05;;
351;SDS011;164;50.784;6.496;2022-12-26T05:54:48;2.38;;;1.70;;
351;SDS011;164;50.784;6.496;2022-12-26T05:57:15;2.20;;;1.45;;
351;SDS011;164;50.784;6.496;2022-12-26T05:59:42;1.23;;;1.13;;
351;SDS011;164;50.784;6.496;2022-12-26T06:02:11;2.58;;;1.35;;
351;SDS011;164;50.784;6.496;2022-12-26T06:04:38;1.27;;;1.17;;
351;SDS011;164;50.784;6.496;2022-12-26T06:07:05;1.98;;;1.08;;
351;SDS011;164;50.784;6.496;2022-12-26T06:09:33;0.98;;;0.93;;
351;SDS011;164;50.784;6.496;2022-12-26T06:12:00;2.28;;;0.90;;
351;SDS011;164;50.784;6.496;2022-12-26T06:14:27;1.20;;;1.10;;
351;SDS011;164;50.784;6.496;2022-12-26T06:16:55;1.65;;;0.77;;
351;SDS011;164;50.784;6.496;2022-12-26T06:19:23;1.02;;;0.63;;
351;SDS011;164;50.784;6.496;2022-12-26T06:21:50;0.68;;;0.50;;
351;SDS011;164;50.784;6.496;2022-12-26T06:24:17;0.82;;;0.55;;
351;SDS011;164;50.784;6.496;2022-12-26T06:26:45;0.63;;;0.50;;
351;SDS011;164;50.784;6.496;2022-12-26T06:29:13;1.17;;;0.50;;
351;SDS011;164;50.784;6.496;2022-12-26T06:31:40;0.57;;;0.52;;
351;SDS011;164;50.784;6.496;2022-12-26T06:34:08;0.90;;;0.70;;
351;SDS011;164;50.784;6.496;2022-12-26T06:36:38;0.80;;;0.80;;
351;SDS011;164;50.784;6.496;2022-12-26T06:39:06;0.70;;;0.50;;
351;SDS011;164;50.784;6.496;2022-12-26T06:41:33;1.00;;;0.75;;
351;SDS011;164;50.784;6.496;2022-12-26T06:44:00;0.70;;;0.70;;
351;SDS011;164;50.784;6.496;2022-12-26T06:46:27;1.13;;;0.60;;
351;SDS011;164;50.784;6.496;2022-12-26T06:48:55;2.25;;;0.90;;
351;SDS011;164;50.784;6.496;2022-12-26T06:51:22;2.60;;;0.63;;
351;SDS011;164;50.784;6.496;2022-12-26T06:53:51;0.60;;;0.60;;
351;SDS011;164;50.784;6.496;2022-12-26T06:56:20;1.20;;;0.75;;
351;SDS011;164;50.784;6.496;2022-12-26T06:58:50;0.70;;;0.60;;
351;SDS011;164;50.784;6.496;2022-12-26T07:01:18;0.95;;;0.70;;
351;SDS011;164;50.784;6.496;2022-12-26T07:03:45;1.00;;;0.90;;
351;SDS011;164;50.784;6.496;2022-12-26T07:06:19;0.90;;;0.70;;
351;SDS011;164;50.784;6.496;2022-12-26T07:08:47;0.85;;;0.82;;
351;SDS011;164;50.784;6.496;2022-12-26T07:11:16;2.08;;;0.80;;
351;SDS011;164;50.784;6.496;2022-12-26T07:13:43;2.20;;;1.10;;
351;SDS011;164;50.784;6.496;2022-12-26T07:16:11;1.17;;;1.08;;
351;SDS011;164;50.784;6.496;2022-12-26T07:18:38;1.55;;;1.30;;
351;SDS011;164;50.784;6.496;2022-12-26T07:21:05;2.22;;;1.80;;
351;SDS011;164;50.784;6.496;2022-12-26T07:23:33;2.33;;;2.00;;
351;SDS011;164;50.784;6.496;2022-12-26T07:26:00;1.80;;;1.63;;
351;SDS011;164;50.784;6.496;2022-12-26T07:28:29;2.30;;;2.08;;
351;SDS011;164;50.784;6.496;2022-12-26T07:30:57;2.13;;;1.98;;
351;SDS011;164;50.784;6.496;2022-12-26T07:33:24;2.95;;;2.25;;
351;SDS011;164;50.784;6.496;2022-12-26T07:35:52;2.08;;;1.92;;
351;SDS011;164;50.784;6.496;2022-12-26T07:38:19;1.30;;;1.30;;
351;SDS011;164;50.784;6.496;2022-12-26T07:40:46;2.97;;;1.63;;
351;SDS011;164;50.784;6.496;2022-12-26T07:43:13;2.70;;;1.90;;
351;SDS011;164;50.784;6.496;2022-12-26T07:45:42;2.53;;;1.55;;
351;SDS011;164;50.784;6.496;2022-12-26T07:48:09;2.70;;;1.90;;
351;SDS011;164;50.784;6.496;2022-12-26T07:50:36;2.65;;;1.40;;
351;SDS011;164;50.784;6.496;2022-12-26T07:53:03;2.97;;;1.58;;
351;SDS011;164;50.784;6.496;2022-12-26T07:55:31;2.60;;;1.60;;
351;SDS011;164;50.784;6.496;2022-12-26T07:57:58;2.05;;;1.90;;
351;SDS011;164;50.784;6.496;2022-12-26T08:00:25;1.45;;;1.35;;
351;SDS011;164;50.784;6.496;2022-12-26T08:02:54;2.08;;;1.60;;
351;SDS011;164;50.784;6.496;2022-12-26T08:05:21;2.40;;;1.38;;
351;SDS011;164;50.784;6.496;2022-12-26T08:07:48;1.70;;;1.60;;
351;SDS011;164;50.784;6.496;2022-12-26T08:10:16;1.65;;;1.45;;
351;SDS011;164;50.784;6.496;2022-12-26T08:12:43;6.18;;;2.17;;
351;SDS011;164;50.784;6.496;2022-12-26T08:15:11;1.52;;;0.90;;
351;SDS011;164;50.784;6.496;2022-12-26T08:17:38;1.65;;;1.05;;
351;SDS011;164;50.784;6.496;2022-12-26T08:20:07;1.25;;;1.17;;
351;SDS011;164;50.784;6.496;2022-12-26T08:22:34;1.90;;;1.25;;
351;SDS011;164;50.784;6.496;2022-12-26T08:25:02;1.67;;;1.30;;
351;SDS011;164;50.784;6.496;2022-12-26T08:27:29;1.23;;;1.15;;
351;SDS011;164;50.784;6.496;2022-12-26T08:29:57;1.10;;;1.10;;
351;SDS011;164;50.784;6.496;2022-12-26T08:32:24;2.05;;;0.98;;
351;SDS011;164;50.784;6.496;2022-12-26T08:34:51;2.38;;;0.80;;
351;SDS011;164;50.784;6.496;2022-12-26T08:37:20;2.13;;;0.80;;
351;SDS011;164;50.784;6.496;2022-12-26T08:39:48;1.80;;;0.85;;
351;SDS011;164;50.784;6.496;2022-12-26T08:42:16;1.25;;;0.80;;
351;SDS011;164;50.784;6.496;2022-12-26T08:44:44;2.60;;;1.00;;
351;SDS011;164;50.784;6.496;2022-12-26T08:47:11;1.17;;;0.82;;
351;SDS011;164;50.784;6.496;2022-12-26T08:49:38;1.33;;;0.93;;
351;SDS011;164;50.784;6.496;2022-12-26T08:52:06;1.45;;;0.70;;
351;SDS011;164;50.784;6.496;2022-12-26T08:54:35;1.10;;;0.93;;
351;SDS011;164;50.784;6.496;2022-12-26T08:57:02;0.77;;;0.63;;
351;SDS011;164;50.784;6.496;2022-12-26T08:59:29;0.90;;;0.85;;
351;SDS011;164;50.784;6.496;2022-12-26T09:01:56;1.38;;;1.30;;
351;SDS011;164;50.784;6.496;2022-12-26T09:04:24;1.45;;;1.08;;
351;SDS011;164;50.784;6.496;2022-12-26T09:06:51;1.02;;;0.80;;
351;SDS011;164;50.784;6.496;2022-12-26T09:09:18;1.35;;;0.90;;
351;SDS011;164;50.784;6.496;2022-12-26T09:11:47;1.77;;;1.08;;
351;SDS011;164;50.784;6.496;2022-12-26T09:14:14;1.20;;;0.90;;
351;SDS011;164;50.784;6.496;2022-12-26T09:16:42;2.88;;;1.00;;
351;SDS011;164;50.784;6.496;2022-12-26T09:19:11;2.90;;;1.25;;
351;SDS011;164;50.784;6.496;2022-12-26T09:21:40;2.05;;;0.98;;
351;SDS011;164;50.784;6.496;2022-12-26T09:24:09;2.05;;;0.85;;
351;SDS011;164;50.784;6.496;2022-12-26T09:26:37;1.60;;;1.10;;
351;SDS011;164;50.784;6.496;2022-12-26T09:29:06;1.67;;;1.10;;
351;SDS011;164;50.784;6.496;2022-12-26T09:31:33;2.55;;;1.00;;
351;SDS011;164;50.784;6.496;2022-12-26T09:34:01;1.55;;;0.85;;
351;SDS011;164;50.784;6.496;2022-12-26T09:36:30;1.95;;;0.90;;
351;SDS011;164;50.784;6.496;2022-12-26T09:38:57;3.65;;;1.10;;
351;SDS011;164;50.784;6.496;2022-12-26T09:41:30;1.63;;;1.00;;
351;SDS011;164;50.784;6.496;2022-12-26T09:43:59;1.70;;;1.17;;
351;SDS011;164;50.784;6.496;2022-12-26T09:46:31;3.90;;;1.00;;
351;SDS011;164;50.784;6.496;2022-12-26T09:49:02;2.22;;;0.90;;
351;SDS011;164;50.784;6.496;2022-12-26T09:51:30;3.67;;;1.20;;
351;SDS011;164;50.784;6.496;2022-12-26T09:53:59;2.85;;;0.80;;
351;SDS011;164;50.784;6.496;2022-12-26T09:56:29;1.00;;;0.70;;
351;SDS011;164;50.784;6.496;2022-12-26T09:58:57;1.00;;;0.70;;
351;SDS011;164;50.784;6.496;2022-12-26T10:01:27;1.70;;;1.10;;
351;SDS011;164;50.784;6.496;2022-12-26T10:03:58;1.23;;;1.08;;
351;SDS011;164;50.784;6.496;2022-12-26T10:06:25;5.93;;;0.90;;
351;SDS011;164;50.784;6.496;2022-12-26T10:09:02;2.85;;;0.80;;
351;SDS011;164;50.784;6.496;2022-12-26T10:11:34;1.65;;;0.70;;
351;SDS011;164;50.784;6.496;2022-12-26T10:14:03;3.40;;;1.00;;
351;SDS011;164;50.784;6.496;2022-12-26T10:16:39;1.52;;;1.05;;
351;SDS011;164;50.784;6.496;2022-12-26T10:19:15;4.53;;;1.55;;
351;SDS011;164;50.784;6.496;2022-12-26T10:21:47;0.95;;;0.82;;
351;SDS011;164;50.784;6.496;2022-12-26T10:24:16;2.20;;;1.00;;
351;SDS011;164;50.784;6.496;2022-12-26T10:26:46;2.78;;;0.90;;
351;SDS011;164;50.784;6.496;2022-12-26T10:29:16;1.35;;;1.05;;
351;SDS011;164;50.784;6.496;2022-12-26T10:31:45;1.20;;;0.90;;
351;SDS011;164;50.784;6.496;2022-12-26T10:34:16;1.55;;;1.10;;
351;SDS011;164;50.784;6.496;2022-12-26T10:36:45;2.95;;;1.10;;
351;SDS011;164;50.784;6.496;2022-12-26T10:39:14;3.25;;;0.85;;
351;SDS011;164;50.784;6.496;2022-12-26T10:41:45;1.58;;;0.95;;
351;SDS011;164;50.784;6.496;2022-12-26T10:44:13;1.67;;;1.05;;
351;SDS011;164;50.784;6.496;2022-12-26T10:46:53;2.78;;;1.08;;
351;SDS011;164;50.784;6.496;2022-12-26T10:49:24;2.70;;;1.42;;
351;SDS011;164;50.784;6.496;2022-12-26T10:51:53;2.55;;;0.70;;
351;SDS011;164;50.784;6.496;2022-12-26T10:54:21;1.70;;;1.10;;
351;SDS011;164;50.784;6.496;2022-12-26T10:56:49;2.25;;;0.82;;
351;SDS011;164;50.784;6.496;2022-12-26T10:59:17;1.75;;;1.00;;
351;SDS011;164;50.784;6.496;2022-12-26T11:01:46;2.17;;;0.88;;
351;SDS011;164;50.784;6.496;2022-12-26T11:04:14;4.32;;;1.00;;
351;SDS011;164;50.784;6.496;2022-12-26T11:06:43;0.98;;;0.80;;
351;SDS011;164;50.784;6.496;2022-12-26T11:11:53;3.80;;;1.50;;
351;SDS011;164;50.784;6.496;2022-12-26T11:14:26;3.47;;;1.08;;
351;SDS011;164;50.784;6.496;2022-12-26T11:16:54;2.38;;;1.15;;
351;SDS011;164;50.784;6.496;2022-12-26T11:19:26;1.33;;;0.77;;
351;SDS011;164;50.784;6.496;2022-12-26T11:21:57;3.40;;;1.00;;
351;SDS011;164;50.784;6.496;2022-12-26T11:24:39;2.05;;;1.00;;
351;SDS011;164;50.784;6.496;2022-12-26T11:27:15;4.05;;;1.20;;
351;SDS011;164;50.784;6.496;2022-12-26T11:29:42;3.60;;;0.80;;
351;SDS011;164;50.784;6.496;2022-12-26T11:32:13;3.53;;;0.98;;
351;SDS011;164;50.784;6.496;2022-12-26T11:34:43;1.95;;;0.90;;
351;SDS011;164;50.784;6.496;2022-12-26T11:37:20;2.45;;;1.05;;
351;SDS011;164;50.784;6.496;2022-12-26T11:39:49;1.70;;;0.70;;
351;SDS011;164;50.784;6.496;2022-12-26T11:42:18;3.92;;;1.20;;
351;SDS011;164;50.784;6.496;2022-12-26T11:44:46;3.25;;;1.02;;
351;SDS011;164;50.784;6.496;2022-12-26T11:47:16;1.40;;;1.05;;
351;SDS011;164;50.784;6.496;2022-12-26T11:49:45;3.05;;;1.33;;
351;SDS011;164;50.784;6.496;2022-12-26T11:52:31;1.40;;;1.10;;
351;SDS011;164;50.784;6.496;2022-12-26T11:55:00;1.58;;;0.80;;
351;SDS011;164;50.784;6.496;2022-12-26T11:57:28;2.15;;;0.95;;
351;SDS011;164;50.784;6.496;2022-12-26T12:00:11;2.17;;;1.10;;
351;SDS011;164;50.784;6.496;2022-12-26T12:02:40;1.98;;;0.85;;
351;SDS011;164;50.784;6.496;2022-12-26T12:05:11;1.35;;;0.85;;
351;SDS011;164;50.784;6.496;2022-12-26T12:07:47;2.55;;;1.13;;
351;SDS011;164;50.784;6.496;2022-12-26T12:10:30;1.40;;;0.70;;
351;SDS011;164;50.784;6.496;2022-12-26T12:13:01;2.97;;;1.00;;
351;SDS011;164;50.784;6.496;2022-12-26T12:15:33;3.80;;;1.23;;
351;SDS011;164;50.784;6.496;2022-12-26T12:18:04;1.10;;;1.00;;
351;SDS011;164;50.784;6.496;2022-12-26T12:20:35;1.40;;;0.75;;
351;SDS011;164;50.784;6.496;2022-12-26T12:23:09;0.93;;;0.85;;
351;SDS011;164;50.784;6.496;2022-12-26T12:25:43;1.92;;;0.98;;
351;SDS011;164;50.784;6.496;2022-12-26T12:31:01;2.65;;;1.20;;
351;SDS011;164;50.784;6.496;2022-12-26T12:33:42;2.83;;;0.90;;
351;SDS011;164;50.784;6.496;2022-12-26T12:36:12;1.25;;;0.82;;
351;SDS011;164;50.784;6.496;2022-12-26T12:38:52;1.08;;;0.80;;
351;SDS011;164;50.784;6.496;2022-12-26T12:41:39;1.90;;;0.80;;
351;SDS011;164;50.784;6.496;2022-12-26T12:44:12;1.08;;;0.68;;
351;SDS011;164;50.784;6.496;2022-12-26T12:46:43;1.10;;;0.70;;
351;SDS011;164;50.784;6.496;2022-12-26T12:49:25;1.00;;;0.75;;
351;SDS011;164;50.784;6.496;2022-12-26T12:51:59;3.25;;;0.80;;
351;SDS011;164;50.784;6.496;2022-12-26T12:54:37;4.95;;;1.08;;
351;SDS011;164;50.784;6.496;2022-12-26T12:57:08;6.25;;;1.63;;
351;SDS011;164;50.784;6.496;2022-12-26T12:59:41;1.88;;;1.08;;
351;SDS011;164;50.784;6.496;2022-12-26T13:02:14;1.35;;;0.63;;
351;SDS011;164;50.784;6.496;2022-12-26T13:04:44;2.25;;;0.80;;
351;SDS011;164;50.784;6.496;2022-12-26T13:07:14;2.17;;;0.80;;
351;SDS011;164;50.784;6.496;2022-12-26T13:09:45;3.78;;;1.10;;
351;SDS011;164;50.784;6.496;2022-12-26T13:12:15;0.63;;;0.50;;
351;SDS011;164;50.784;6.496;2022-12-26T13:14:45;1.77;;;0.80;;
351;SDS011;164;50.784;6.496;2022-12-26T13:17:15;2.70;;;0.70;;
351;SDS011;164;50.784;6.496;2022-12-26T13:19:44;3.15;;;0.70;;
351;SDS011;164;50.784;6.496;2022-12-26T13:22:13;2.08;;;1.05;;
351;SDS011;164;50.784;6.496;2022-12-26T13:24:42;1.77;;;0.75;;
351;SDS011;164;50.784;6.496;2022-12-26T13:27:13;1.35;;;0.55;;
351;SDS011;164;50.784;6.496;2022-12-26T13:29:42;0.75;;;0.50;;
351;SDS011;164;50.784;6.496;2022-12-26T13:32:14;2.08;;;0.60;;
351;SDS011;164;50.784;6.496;2022-12-26T13:34:42;0.50;;;0.40;;
351;SDS011;164;50.784;6.496;2022-12-26T13:39:51;1.60;;;0.50;;
351;SDS011;164;50.784;6.496;2022-12-26T13:42:26;1.30;;;0.80;;
351;SDS011;164;50.784;6.496;2022-12-26T13:48:00;1.00;;;0.65;;
351;SDS011;164;50.784;6.496;2022-12-26T13:50:46;1.08;;;0.75;;
351;SDS011;164;50.784;6.496;2022-12-26T13:53:26;1.80;;;1.10;;
351;SDS011;164;50.784;6.496;2022-12-26T13:55:54;1.15;;;0.98;;
351;SDS011;164;50.784;6.496;2022-12-26T13:58:28;2.97;;;1.35;;
351;SDS011;164;50.784;6.496;2022-12-26T14:01:03;2.55;;;1.30;;
351;SDS011;164;50.784;6.496;2022-12-26T14:03:40;1.45;;;1.27;;
351;SDS011;164;50.784;6.496;2022-12-26T14:06:11;1.30;;;1.15;;
351;SDS011;164;50.784;6.496;2022-12-26T14:08:43;2.03;;;1.83;;
351;SDS011;164;50.784;6.496;2022-12-26T14:11:21;2.25;;;1.27;;
351;SDS011;164;50.784;6.496;2022-12-26T14:13:59;2.50;;;1.52;;
351;SDS011;164;50.784;6.496;2022-12-26T14:16:30;2.08;;;1.55;;
351;SDS011;164;50.784;6.496;2022-12-26T14:19:01;5.47;;;1.95;;
351;SDS011;164;50.784;6.496;2022-12-26T14:21:36;2.70;;;2.10;;
351;SDS011;164;50.784;6.496;2022-12-26T14:24:14;4.50;;;2.28;;
351;SDS011;164;50.784;6.496;2022-12-26T14:26:43;2.30;;;2.10;;
351;SDS011;164;50.784;6.496;2022-12-26T14:29:18;3.03;;;1.42;;
351;SDS011;164;50.784;6.496;2022-12-26T14:31:51;2.45;;;1.80;;
351;SDS011;164;50.784;6.496;2022-12-26T14:34:24;1.85;;;1.60;;
351;SDS011;164;50.784;6.496;2022-12-26T14:36:55;3.78;;;2.42;;
351;SDS011;164;50.784;6.496;2022-12-26T14:39:27;3.53;;;1.80;;
351;SDS011;164;50.784;6.496;2022-12-26T14:42:13;1.52;;;1.30;;
351;SDS011;164;50.784;6.496;2022-12-26T14:45:00;2.13;;;1.50;;
351;SDS011;164;50.784;6.496;2022-12-26T14:47:35;2.97;;;1.45;;
351;SDS011;164;50.784;6.496;2022-12-26T14:52:48;4.97;;;1.90;;
351;SDS011;164;50.784;6.496;2022-12-26T15:00:46;3.35;;;1.65;;
351;SDS011;164;50.784;6.496;2022-12-26T15:03:21;2.88;;;2.00;;
351;SDS011;164;50.784;6.496;2022-12-26T15:05:51;3.00;;;1.98;;
351;SDS011;164;50.784;6.496;2022-12-26T15:08:46;2.65;;;1.80;;
351;SDS011;164;50.784;6.496;2022-12-26T15:14:06;1.63;;;1.40;;
351;SDS011;164;50.784;6.496;2022-12-26T15:16:48;3.90;;;1.48;;
351;SDS011;164;50.784;6.496;2022-12-26T15:22:19;3.75;;;1.77;;
351;SDS011;164;50.784;6.496;2022-12-26T15:24:57;1.90;;;1.75;;
351;SDS011;164;50.784;6.496;2022-12-26T15:27:45;4.65;;;2.15;;
351;SDS011;164;50.784;6.496;2022-12-26T15:30:18;2.67;;;1.20;;
351;SDS011;164;50.784;6.496;2022-12-26T15:32:50;1.67;;;1.30;;
351;SDS011;164;50.784;6.496;2022-12-26T15:35:21;1.92;;;1.20;;
351;SDS011;164;50.784;6.496;2022-12-26T15:37:57;3.88;;;1.70;;
351;SDS011;164;50.784;6.496;2022-12-26T15:40:26;2.85;;;1.48;;
351;SDS011;164;50.784;6.496;2022-12-26T15:43:08;2.55;;;1.73;;
351;SDS011;164;50.784;6.496;2022-12-26T15:45:43;8.48;;;5.78;;
351;SDS011;164;50.784;6.496;2022-12-26T15:48:24;3.78;;;2.00;;
351;SDS011;164;50.784;6.496;2022-12-26T15:50:55;4.47;;;2.08;;
351;SDS011;164;50.784;6.496;2022-12-26T15:53:27;3.47;;;1.65;;
351;SDS011;164;50.784;6.496;2022-12-26T15:58:47;2.78;;;1.92;;
351;SDS011;164;50.784;6.496;2022-12-26T16:01:32;5.13;;;2.47;;
351;SDS011;164;50.784;6.496;2022-12-26T16:04:02;4.40;;;1.90;;
351;SDS011;164;50.784;6.496;2022-12-26T16:06:38;2.70;;;1.70;;
351;SDS011;164;50.784;6.496;2022-12-26T16:09:14;1.83;;;1.75;;
351;SDS011;164;50.784;6.496;2022-12-26T16:11:44;6.35;;;6.00;;
351;SDS011;164;50.784;6.496;2022-12-26T16:14:23;4.60;;;2.60;;
351;SDS011;164;50.784;6.496;2022-12-26T16:16:51;4.47;;;2.25;;
351;SDS011;164;50.784;6.496;2022-12-26T16:19:20;2.55;;;1.60;;
351;SDS011;164;50.784;6.496;2022-12-26T16:21:49;3.80;;;2.10;;
351;SDS011;164;50.784;6.496;2022-12-26T16:24:35;3.85;;;1.80;;
351;SDS011;164;50.784;6.496;2022-12-26T16:27:04;2.88;;;2.20;;
351;SDS011;164;50.784;6.496;2022-12-26T16:29:33;2.58;;;1.77;;
351;SDS011;164;50.784;6.496;2022-12-26T16:32:03;4.82;;;2.35;;
351;SDS011;164;50.784;6.496;2022-12-26T16:34:33;6.80;;;2.53;;
351;SDS011;164;50.784;6.496;2022-12-26T16:37:01;2.88;;;1.92;;
351;SDS011;164;50.784;6.496;2022-12-26T16:39:29;4.93;;;2.63;;
351;SDS011;164;50.784;6.496;2022-12-26T16:41:58;5.47;;;2.58;;
351;SDS011;164;50.784;6.496;2022-12-26T16:44:30;3.97;;;2.50;;
351;SDS011;164;50.784;6.496;2022-12-26T16:46:58;3.45;;;1.85;;
351;SDS011;164;50.784;6.496;2022-12-26T16:49:26;4.85;;;2.10;;
351;SDS011;164;50.784;6.496;2022-12-26T16:51:56;5.22;;;2.60;;
351;SDS011;164;50.784;6.496;2022-12-26T16:54:26;4.45;;;4.00;;